createdAt,value
2023-12-28T00:00:41.829Z,85.97
2023-12-28T00:01:41.732Z,85.97
2023-12-28T00:02:41.690Z,84.83
2023-12-28T00:03:41.737Z,84.94
2023-12-28T00:04:41.664Z,84.63
2023-12-28T00:05:41.686Z,84.28
2023-12-28T00:06:41.722Z,83.55
2023-12-28T00:07:41.649Z,84.07
2023-12-28T00:08:43.149Z,83.97
2023-12-28T00:09:41.655Z,84.59
2023-12-28T00:10:41.640Z,85.00
2023-12-28T00:11:41.613Z,85.04
2023-12-28T00:12:41.640Z,85.55
2023-12-28T00:13:41.594Z,86.69
2023-12-28T00:14:41.613Z,87.04
2023-12-28T00:15:41.633Z,87.18
2023-12-28T00:16:41.577Z,88.67
2023-12-28T00:17:41.631Z,89.50
2023-12-28T00:18:41.666Z,90.68
2023-12-28T00:19:41.775Z,91.49
2023-12-28T00:20:41.536Z,91.86
2023-12-28T00:21:41.520Z,91.80
2023-12-28T00:22:42.539Z,92.63
2023-12-28T00:23:41.508Z,93.46
2023-12-28T00:24:41.588Z,93.46
2023-12-28T00:25:41.519Z,94.12
2023-12-28T00:26:41.489Z,94.08
2023-12-28T00:27:41.504Z,94.39
2023-12-28T00:28:41.477Z,94.23
2023-12-28T00:29:41.527Z,93.98
2023-12-28T00:30:41.535Z,94.12
2023-12-28T00:31:41.595Z,94.74
2023-12-28T00:32:41.479Z,94.54
2023-12-28T00:33:41.519Z,94.81
2023-12-28T00:34:41.588Z,95.16
2023-12-28T00:35:41.418Z,95.37
2023-12-28T00:36:41.420Z,96.20
2023-12-28T00:37:41.397Z,96.30
2023-12-28T00:38:41.419Z,97.24
2023-12-28T00:39:41.431Z,96.61
2023-12-28T00:40:41.383Z,97.07
2023-12-28T00:41:41.372Z,96.86
2023-12-28T00:42:41.388Z,97.49
2023-12-28T00:43:41.383Z,97.59
2023-12-28T00:44:41.345Z,97.90
2023-12-28T00:45:41.355Z,97.95
2023-12-28T00:46:41.328Z,98.88
2023-12-28T00:47:41.349Z,98.52
2023-12-28T00:48:41.409Z,99.15
2023-12-28T00:49:41.357Z,99.09
2023-12-28T00:50:41.298Z,99.35
2023-12-28T00:51:41.319Z,99.92
2023-12-28T00:52:41.312Z,99.98
2023-12-28T00:53:41.300Z,99.98
2023-12-28T00:54:41.302Z,99.98
2023-12-28T00:55:41.256Z,99.46
2023-12-28T00:56:41.253Z,99.25
2023-12-28T00:57:41.303Z,99.25
2023-12-28T00:58:41.227Z,99.41
2023-12-28T00:59:41.212Z,99.72
2023-12-28T01:00:42.302Z,99.21
2023-12-28T01:01:41.256Z,98.90
2023-12-28T01:02:41.227Z,98.48
2023-12-28T01:03:41.300Z,98.54
2023-12-28T01:04:41.261Z,98.58
2023-12-28T01:05:41.205Z,99.21
2023-12-28T01:06:41.282Z,99.31
2023-12-28T01:07:41.191Z,99.05
2023-12-28T01:08:41.160Z,99.05
2023-12-28T01:09:41.180Z,99.78
2023-12-28T01:10:41.145Z,98.69
2023-12-28T01:11:41.161Z,99.21
2023-12-28T01:12:41.141Z,98.95
2023-12-28T01:13:42.765Z,98.85
2023-12-28T01:14:42.127Z,99.05
2023-12-28T01:15:41.142Z,99.31
2023-12-28T01:16:41.129Z,99.72
2023-12-28T01:17:41.101Z,98.79
2023-12-28T01:18:41.207Z,98.85
2023-12-28T01:19:41.221Z,99.31
2023-12-28T01:20:41.178Z,99.82
2023-12-28T01:21:41.127Z,99.26
2023-12-28T01:22:41.052Z,99.05
2023-12-28T01:23:41.051Z,98.64
2023-12-28T01:24:41.068Z,98.54
2023-12-28T01:25:41.051Z,98.43
2023-12-28T01:26:41.026Z,98.22
2023-12-28T01:27:41.084Z,98.60
2023-12-28T01:28:41.012Z,98.12
2023-12-28T01:29:41.019Z,98.18
2023-12-28T01:30:41.205Z,98.91
2023-12-28T01:31:41.037Z,98.08
2023-12-28T01:32:41.042Z,98.18
2023-12-28T01:33:41.040Z,97.93
2023-12-28T01:34:41.118Z,98.55
2023-12-28T01:35:40.976Z,98.65
2023-12-28T01:36:41.035Z,98.34
2023-12-28T01:37:40.949Z,98.34
2023-12-28T01:38:40.927Z,98.61
2023-12-28T01:39:40.964Z,98.86
2023-12-28T01:40:40.912Z,98.75
2023-12-28T01:41:40.902Z,99.54
2023-12-28T01:42:40.951Z,98.92
2023-12-28T01:43:40.893Z,98.92
2023-12-28T01:44:40.979Z,99.43
2023-12-28T01:45:40.908Z,99.64
2023-12-28T01:46:40.873Z,98.71
2023-12-28T01:47:40.933Z,98.66
2023-12-28T01:48:41.056Z,99.13
2023-12-28T01:49:40.939Z,99.08
2023-12-28T01:50:40.830Z,98.56
2023-12-28T01:51:40.894Z,98.19
2023-12-28T01:52:40.856Z,98.40
2023-12-28T01:53:40.835Z,97.22
2023-12-28T01:54:40.869Z,97.07
2023-12-28T01:55:40.809Z,96.55
2023-12-28T01:56:40.787Z,95.83
2023-12-28T01:57:40.787Z,96.72
2023-12-28T01:58:40.798Z,96.30
2023-12-28T01:59:40.760Z,96.72
2023-12-28T02:00:40.836Z,95.78
2023-12-28T02:01:40.760Z,95.02
2023-12-28T02:02:40.742Z,93.68
2023-12-28T02:03:40.926Z,93.53
2023-12-28T02:04:40.771Z,92.91
2023-12-28T02:05:40.766Z,93.07
2023-12-28T02:06:40.724Z,92.35
2023-12-28T02:07:40.730Z,91.48
2023-12-28T02:08:40.712Z,90.76
2023-12-28T02:09:40.748Z,89.58
2023-12-28T02:10:40.680Z,88.62
2023-12-28T02:11:40.668Z,86.61
2023-12-28T02:12:40.682Z,85.89
2023-12-28T02:13:40.673Z,86.47
2023-12-28T02:14:40.638Z,86.99
2023-12-28T02:15:40.647Z,86.99
2023-12-28T02:16:40.622Z,86.47
2023-12-28T02:17:40.695Z,86.13
2023-12-28T02:18:40.721Z,85.41
2023-12-28T02:19:40.608Z,85.61
2023-12-28T02:20:40.599Z,86.02
2023-12-28T02:21:40.592Z,85.51
2023-12-28T02:22:40.609Z,85.61
2023-12-28T02:23:40.579Z,85.61
2023-12-28T02:24:40.569Z,85.41
2023-12-28T02:26:13.201Z,85.61
2023-12-28T02:26:40.579Z,84.99
2023-12-28T02:27:40.593Z,84.85
2023-12-28T02:28:40.540Z,84.23
2023-12-28T02:29:40.531Z,84.23
2023-12-28T02:30:40.570Z,85.57
2023-12-28T02:31:40.600Z,85.57
2023-12-28T02:32:40.589Z,85.68
2023-12-28T02:33:40.618Z,86.29
2023-12-28T02:34:40.515Z,86.50
2023-12-28T02:35:40.480Z,85.47
2023-12-28T02:36:40.526Z,85.82
2023-12-28T02:37:40.468Z,84.85
2023-12-28T02:38:40.456Z,85.16
2023-12-28T02:39:40.522Z,85.78
2023-12-28T02:40:40.476Z,86.29
2023-12-28T02:41:40.456Z,86.60
2023-12-28T02:42:40.451Z,86.70
2023-12-28T02:43:40.418Z,87.73
2023-12-28T02:44:40.416Z,87.42
2023-12-28T02:45:40.471Z,86.95
2023-12-28T02:46:40.404Z,87.46
2023-12-28T02:47:40.416Z,87.26
2023-12-28T02:48:40.470Z,87.05
2023-12-28T02:49:40.434Z,88.39
2023-12-28T02:50:40.393Z,87.36
2023-12-28T02:51:40.416Z,87.57
2023-12-28T02:52:40.346Z,87.15
2023-12-28T02:53:40.342Z,87.36
2023-12-28T02:54:40.355Z,88.08
2023-12-28T02:55:40.361Z,88.18
2023-12-28T02:56:40.319Z,88.90
2023-12-28T02:57:40.390Z,88.08
2023-12-28T02:58:40.308Z,87.98
2023-12-28T02:59:40.329Z,88.39
2023-12-28T03:00:40.366Z,87.26
2023-12-28T03:01:40.323Z,87.57
2023-12-28T03:02:40.317Z,88.29
2023-12-28T03:03:40.338Z,88.29
2023-12-28T03:04:40.291Z,87.46
2023-12-28T03:05:40.336Z,87.67
2023-12-28T03:06:40.259Z,87.46
2023-12-28T03:07:40.245Z,88.35
2023-12-28T03:08:40.226Z,88.70
2023-12-28T03:09:40.245Z,88.39
2023-12-28T03:10:40.225Z,88.08
2023-12-28T03:11:40.204Z,88.24
2023-12-28T03:12:40.205Z,88.29
2023-12-28T03:13:40.201Z,88.29
2023-12-28T03:14:40.210Z,88.49
2023-12-28T03:15:40.234Z,87.46
2023-12-28T03:16:40.166Z,87.26
2023-12-28T03:17:40.274Z,87.36
2023-12-28T03:18:40.313Z,86.95
2023-12-28T03:19:40.291Z,86.91
2023-12-28T03:20:40.143Z,86.91
2023-12-28T03:21:40.160Z,87.42
2023-12-28T03:22:40.116Z,87.12
2023-12-28T03:23:40.134Z,87.73
2023-12-28T03:24:40.142Z,87.52
2023-12-28T03:25:40.097Z,88.24
2023-12-28T03:26:40.082Z,88.14
2023-12-28T03:27:40.085Z,87.22
2023-12-28T03:28:40.090Z,87.63
2023-12-28T03:29:40.054Z,87.63
2023-12-28T03:30:40.111Z,87.73
2023-12-28T03:31:40.196Z,87.52
2023-12-28T03:32:40.133Z,88.24
2023-12-28T03:33:40.104Z,88.31
2023-12-28T03:34:40.228Z,88.20
2023-12-28T03:35:40.004Z,88.86
2023-12-28T03:36:40.025Z,88.10
2023-12-28T03:37:40.028Z,87.75
2023-12-28T03:38:39.991Z,87.90
2023-12-28T03:39:40.029Z,88.27
2023-12-28T03:40:39.965Z,88.92
2023-12-28T03:41:39.956Z,88.57
2023-12-28T03:42:40.006Z,88.82
2023-12-28T03:43:39.947Z,88.82
2023-12-28T03:44:39.940Z,87.90
2023-12-28T03:45:39.942Z,88.51
2023-12-28T03:46:39.919Z,88.51
2023-12-28T03:47:40.024Z,88.37
2023-12-28T03:48:40.016Z,88.92
2023-12-28T03:49:40.000Z,88.72
2023-12-28T03:50:39.882Z,89.13
2023-12-28T03:51:39.966Z,89.03
2023-12-28T03:52:39.924Z,89.29
2023-12-28T03:53:39.854Z,89.54
2023-12-28T03:54:39.888Z,89.54
2023-12-28T03:55:39.844Z,89.85
2023-12-28T03:56:39.864Z,89.81
2023-12-28T03:57:39.860Z,89.54
2023-12-28T03:58:39.836Z,90.53
2023-12-28T03:59:39.879Z,89.85
2023-12-28T04:00:39.891Z,89.91
2023-12-28T04:01:39.838Z,89.70
2023-12-28T04:02:39.797Z,88.98
2023-12-28T04:03:39.829Z,89.60
2023-12-28T04:04:39.820Z,89.50
2023-12-28T04:05:39.921Z,89.23
2023-12-28T04:06:39.864Z,90.01
2023-12-28T04:07:39.783Z,90.12
2023-12-28T04:08:39.752Z,89.70
2023-12-28T04:09:39.778Z,89.70
2023-12-28T04:10:39.757Z,89.50
2023-12-28T04:11:39.745Z,89.81
2023-12-28T04:12:39.847Z,89.91
2023-12-28T04:13:40.713Z,90.42
2023-12-28T04:14:39.734Z,89.70
2023-12-28T04:15:39.768Z,89.54
2023-12-28T04:16:39.692Z,90.12
2023-12-28T04:17:39.734Z,90.22
2023-12-28T04:18:39.854Z,90.22
2023-12-28T04:19:39.921Z,90.22
2023-12-28T04:20:39.686Z,90.67
2023-12-28T04:21:39.682Z,90.98
2023-12-28T04:22:39.645Z,90.57
2023-12-28T04:23:39.634Z,90.36
2023-12-28T04:24:39.664Z,89.85
2023-12-28T04:25:39.622Z,89.44
2023-12-28T04:26:39.612Z,90.06
2023-12-28T04:27:39.633Z,89.64
2023-12-28T04:28:39.596Z,89.44
2023-12-28T04:29:39.621Z,89.64
2023-12-28T04:30:39.638Z,90.06
2023-12-28T04:31:39.608Z,90.06
2023-12-28T04:32:39.570Z,89.54
2023-12-28T04:33:39.653Z,89.23
2023-12-28T04:34:39.595Z,89.85
2023-12-28T04:35:39.533Z,90.16
2023-12-28T04:36:39.546Z,89.85
2023-12-28T04:37:39.520Z,90.16
2023-12-28T04:38:39.540Z,90.16
2023-12-28T04:39:39.539Z,90.06
2023-12-28T04:40:39.497Z,89.54
2023-12-28T04:41:39.508Z,89.54
2023-12-28T04:42:39.552Z,89.95
2023-12-28T04:43:39.499Z,90.06
2023-12-28T04:44:39.475Z,90.26
2023-12-28T04:45:39.510Z,90.06
2023-12-28T04:46:39.458Z,90.16
2023-12-28T04:47:39.495Z,90.88
2023-12-28T04:48:39.563Z,90.26
2023-12-28T04:49:39.566Z,90.78
2023-12-28T04:50:40.056Z,90.67
2023-12-28T04:51:40.469Z,90.57
2023-12-28T04:52:39.431Z,90.78
2023-12-28T04:53:39.442Z,91.19
2023-12-28T04:54:39.425Z,91.39
2023-12-28T04:55:39.378Z,90.26
2023-12-28T04:56:39.372Z,90.57
2023-12-28T04:57:39.432Z,91.19
2023-12-28T04:58:39.356Z,91.23
2023-12-28T04:59:39.343Z,91.29
2023-12-28T05:00:39.437Z,91.44
2023-12-28T05:01:39.408Z,91.44
2023-12-28T05:02:39.357Z,91.33
2023-12-28T05:03:39.338Z,91.95
2023-12-28T05:04:39.441Z,91.33
2023-12-28T05:05:39.386Z,91.49
2023-12-28T05:06:39.365Z,91.49
2023-12-28T05:07:39.283Z,92.21
2023-12-28T05:08:39.281Z,91.64
2023-12-28T05:09:39.299Z,91.95
2023-12-28T05:10:39.288Z,92.05
2023-12-28T05:11:39.303Z,92.77
2023-12-28T05:12:44.131Z,92.05
2023-12-28T05:13:41.235Z,92.67
2023-12-28T05:14:39.236Z,92.87
2023-12-28T05:15:39.339Z,92.32
2023-12-28T05:16:39.240Z,92.42
2023-12-28T05:17:39.327Z,92.97
2023-12-28T05:18:39.309Z,92.57
2023-12-28T05:19:39.264Z,92.57
2023-12-28T05:20:39.230Z,92.87
2023-12-28T05:21:39.235Z,92.87
2023-12-28T05:22:39.180Z,93.29
2023-12-28T05:23:39.185Z,93.59
2023-12-28T05:24:39.177Z,93.54
2023-12-28T05:25:39.173Z,93.54
2023-12-28T05:26:39.143Z,93.54
2023-12-28T05:27:39.182Z,94.26
2023-12-28T05:28:39.131Z,94.36
2023-12-28T05:29:39.113Z,94.67
2023-12-28T05:30:39.221Z,94.15
2023-12-28T05:31:39.190Z,94.26
2023-12-28T05:32:39.183Z,94.15
2023-12-28T05:33:39.177Z,94.26
2023-12-28T05:34:39.236Z,94.36
2023-12-28T05:35:39.086Z,94.15
2023-12-28T05:36:39.108Z,94.15
2023-12-28T05:37:39.046Z,93.64
2023-12-28T05:38:39.044Z,94.15
2023-12-28T05:39:39.120Z,94.40
2023-12-28T05:40:39.052Z,94.87
2023-12-28T05:41:39.019Z,94.56
2023-12-28T05:42:39.098Z,94.60
2023-12-28T05:43:39.005Z,94.92
2023-12-28T05:44:39.018Z,94.92
2023-12-28T05:45:39.020Z,95.43
2023-12-28T05:46:38.979Z,95.74
2023-12-28T05:47:39.009Z,95.43
2023-12-28T05:48:39.124Z,95.43
2023-12-28T05:49:39.111Z,95.74
2023-12-28T05:50:38.951Z,95.64
2023-12-28T05:51:38.946Z,95.53
2023-12-28T05:52:38.960Z,95.43
2023-12-28T05:53:38.934Z,95.64
2023-12-28T05:54:39.048Z,95.53
2023-12-28T05:55:38.917Z,95.23
2023-12-28T05:56:38.905Z,95.43
2023-12-28T05:57:38.927Z,95.43
2023-12-28T05:58:38.914Z,95.53
2023-12-28T05:59:38.912Z,95.64
2023-12-28T06:00:38.961Z,95.74
2023-12-28T06:01:38.880Z,95.74
2023-12-28T06:02:38.858Z,95.78
2023-12-28T06:03:38.978Z,95.23
2023-12-28T06:04:39.116Z,95.84
2023-12-28T06:05:38.917Z,95.74
2023-12-28T06:06:38.900Z,95.53
2023-12-28T06:07:38.823Z,95.33
2023-12-28T06:08:38.847Z,95.53
2023-12-28T06:09:38.834Z,95.23
2023-12-28T06:10:38.797Z,95.43
2023-12-28T06:11:38.791Z,96.05
2023-12-28T06:12:38.857Z,96.25
2023-12-28T06:13:38.806Z,95.78
2023-12-28T06:14:38.777Z,96.05
2023-12-28T06:15:38.838Z,96.50
2023-12-28T06:16:38.754Z,96.30
2023-12-28T06:17:38.788Z,96.41
2023-12-28T06:18:39.882Z,96.61
2023-12-28T06:19:38.810Z,96.61
2023-12-28T06:20:38.739Z,96.36
2023-12-28T06:21:38.740Z,96.71
2023-12-28T06:22:38.736Z,96.67
2023-12-28T06:23:38.704Z,96.71
2023-12-28T06:24:38.717Z,96.50
2023-12-28T06:25:38.706Z,96.67
2023-12-28T06:26:38.674Z,96.56
2023-12-28T06:27:38.718Z,96.46
2023-12-28T06:28:38.657Z,96.61
2023-12-28T06:29:38.653Z,96.41
2023-12-28T06:30:38.802Z,96.56
2023-12-28T06:31:38.895Z,97.64
2023-12-28T06:32:38.795Z,97.39
2023-12-28T06:33:38.700Z,97.43
2023-12-28T06:34:38.696Z,97.60
2023-12-28T06:35:38.617Z,97.49
2023-12-28T06:36:38.678Z,97.49
2023-12-28T06:37:38.594Z,97.39
2023-12-28T06:38:38.586Z,97.39
2023-12-28T06:39:38.702Z,97.49
2023-12-28T06:40:38.577Z,96.77
2023-12-28T06:41:38.597Z,97.39
2023-12-28T06:42:38.602Z,97.39
2023-12-28T06:43:38.550Z,97.18
2023-12-28T06:44:38.542Z,97.39
2023-12-28T06:45:38.662Z,97.39
2023-12-28T06:46:38.583Z,97.49
2023-12-28T06:47:38.579Z,97.60
2023-12-28T06:48:38.640Z,97.65
2023-12-28T06:49:39.552Z,97.39
2023-12-28T06:50:38.558Z,97.49
2023-12-28T06:51:38.694Z,97.34
2023-12-28T06:52:38.494Z,97.14
2023-12-28T06:53:38.481Z,96.62
2023-12-28T06:54:38.487Z,96.77
2023-12-28T06:55:38.498Z,96.52
2023-12-28T06:56:38.466Z,96.62
2023-12-28T06:57:38.479Z,96.52
2023-12-28T06:58:38.441Z,96.52
2023-12-28T06:59:38.428Z,96.52
2023-12-28T07:00:38.520Z,97.55
2023-12-28T07:01:38.461Z,97.28
2023-12-28T07:02:38.452Z,97.08
2023-12-28T07:03:38.525Z,97.39
2023-12-28T07:04:38.408Z,97.60
2023-12-28T07:05:38.490Z,97.60
2023-12-28T07:06:38.387Z,98.00
2023-12-28T07:07:38.353Z,98.00
2023-12-28T07:08:38.388Z,97.74
2023-12-28T07:09:38.426Z,98.00
2023-12-28T07:10:38.403Z,98.42
2023-12-28T07:11:38.326Z,98.11
2023-12-28T07:12:38.349Z,98.15
2023-12-28T07:13:38.311Z,98.32
2023-12-28T07:14:38.345Z,97.69
2023-12-28T07:15:38.363Z,98.00
2023-12-28T07:16:38.294Z,97.80
2023-12-28T07:17:38.382Z,98.00
2023-12-28T07:18:38.408Z,97.69
2023-12-28T07:19:38.390Z,97.80
2023-12-28T07:20:38.260Z,98.21
2023-12-28T07:21:38.348Z,98.21
2023-12-28T07:22:38.238Z,98.37
2023-12-28T07:23:38.260Z,98.42
2023-12-28T07:24:38.292Z,98.32
2023-12-28T07:25:38.217Z,98.00
2023-12-28T07:26:38.206Z,98.32
2023-12-28T07:27:38.242Z,98.42
2023-12-28T07:28:38.219Z,98.21
2023-12-28T07:29:38.243Z,98.42
2023-12-28T07:30:38.355Z,98.00
2023-12-28T07:31:38.342Z,98.00
2023-12-28T07:32:38.172Z,98.32
2023-12-28T07:33:38.293Z,98.32
2023-12-28T07:34:38.328Z,98.83
2023-12-28T07:35:38.138Z,99.04
2023-12-28T07:36:38.180Z,98.62
2023-12-28T07:37:38.131Z,98.62
2023-12-28T07:38:38.141Z,99.19
2023-12-28T07:39:38.126Z,98.32
2023-12-28T07:40:38.109Z,98.52
2023-12-28T07:41:38.105Z,98.16
2023-12-28T07:42:38.163Z,98.99
2023-12-28T07:43:38.110Z,98.16
2023-12-28T07:44:38.080Z,98.79
2023-12-28T07:45:38.074Z,98.62
2023-12-28T07:46:38.049Z,98.58
2023-12-28T07:47:38.141Z,98.58
2023-12-28T07:48:39.183Z,98.58
2023-12-28T07:49:38.087Z,99.09
2023-12-28T07:50:38.021Z,99.34
2023-12-28T07:51:38.094Z,99.44
2023-12-28T07:52:38.042Z,98.88
2023-12-28T07:53:38.091Z,99.55
2023-12-28T07:54:38.099Z,99.14
2023-12-28T07:55:37.981Z,99.19
2023-12-28T07:56:37.979Z,99.34
2023-12-28T07:57:38.103Z,99.34
2023-12-28T07:58:37.964Z,99.19
2023-12-28T07:59:37.955Z,99.30
2023-12-28T08:00:38.012Z,99.09
2023-12-28T08:01:38.008Z,99.04
2023-12-28T08:02:37.960Z,98.88
2023-12-28T08:03:38.017Z,98.68
2023-12-28T08:04:38.077Z,98.47
2023-12-28T08:05:37.953Z,99.30
2023-12-28T08:06:37.992Z,99.40
2023-12-28T08:07:37.921Z,99.30
2023-12-28T08:08:37.876Z,99.30
2023-12-28T08:09:37.991Z,99.19
2023-12-28T08:10:37.879Z,99.30
2023-12-28T08:11:38.162Z,98.88
2023-12-28T08:12:37.900Z,99.19
2023-12-28T08:13:37.855Z,99.09
2023-12-28T08:14:37.833Z,98.99
2023-12-28T08:15:38.920Z,98.68
2023-12-28T08:16:37.861Z,98.99
2023-12-28T08:17:37.853Z,98.99
2023-12-28T08:18:37.913Z,98.68
2023-12-28T08:19:37.936Z,99.09
2023-12-28T08:20:37.810Z,98.79
2023-12-28T08:21:37.834Z,98.58
2023-12-28T08:22:37.778Z,98.79
2023-12-28T08:23:37.775Z,98.79
2023-12-28T08:24:37.838Z,99.40
2023-12-28T08:25:37.757Z,99.19
2023-12-28T08:27:09.701Z,98.58
2023-12-28T08:27:37.789Z,98.47
2023-12-28T08:28:37.740Z,98.53
2023-12-28T08:29:37.743Z,98.27
2023-12-28T08:30:37.845Z,98.94
2023-12-28T08:31:37.823Z,98.43
2023-12-28T08:32:37.850Z,98.88
2023-12-28T08:33:37.819Z,98.47
2023-12-28T08:34:37.778Z,98.53
2023-12-28T08:35:37.722Z,98.63
2023-12-28T08:36:37.710Z,98.53
2023-12-28T08:37:38.670Z,98.12
2023-12-28T08:38:37.658Z,98.84
2023-12-28T08:39:37.695Z,98.94
2023-12-28T08:40:37.702Z,98.94
2023-12-28T08:41:37.659Z,98.28
2023-12-28T08:42:37.707Z,98.22
2023-12-28T08:43:37.690Z,98.07
2023-12-28T08:44:37.652Z,97.97
2023-12-28T08:45:37.646Z,97.97
2023-12-28T08:46:37.620Z,97.87
2023-12-28T08:47:37.612Z,97.87
2023-12-28T08:48:37.742Z,97.97
2023-12-28T08:49:37.754Z,98.07
2023-12-28T08:50:37.595Z,98.18
2023-12-28T08:51:37.693Z,98.07
2023-12-28T08:52:37.561Z,97.25
2023-12-28T08:53:37.548Z,97.25
2023-12-28T08:54:37.624Z,97.36
2023-12-28T08:55:37.543Z,97.05
2023-12-28T08:56:37.526Z,97.05
2023-12-28T08:57:42.681Z,97.97
2023-12-28T08:58:39.583Z,97.56
2023-12-28T08:59:37.525Z,97.92
2023-12-28T09:00:37.598Z,97.25
2023-12-28T09:01:37.500Z,97.20
2023-12-28T09:02:37.525Z,96.94
2023-12-28T09:03:37.579Z,96.84
2023-12-28T09:04:37.529Z,96.94
2023-12-28T09:05:37.469Z,97.36
2023-12-28T09:06:37.513Z,96.94
2023-12-28T09:07:37.429Z,96.94
2023-12-28T09:08:38.153Z,97.05
2023-12-28T09:09:38.472Z,97.15
2023-12-28T09:10:37.414Z,96.94
2023-12-28T09:11:37.455Z,96.94
2023-12-28T09:12:37.430Z,97.25
2023-12-28T09:13:37.440Z,97.36
2023-12-28T09:14:37.377Z,97.10
2023-12-28T09:15:37.403Z,96.84
2023-12-28T09:16:37.369Z,97.15
2023-12-28T09:17:37.460Z,96.90
2023-12-28T09:18:37.432Z,97.10
2023-12-28T09:19:37.494Z,96.69
2023-12-28T09:20:37.332Z,97.31
2023-12-28T09:21:37.363Z,96.48
2023-12-28T09:22:37.336Z,96.08
2023-12-28T09:23:37.301Z,96.08
2023-12-28T09:24:37.315Z,95.93
2023-12-28T09:25:37.285Z,95.72
2023-12-28T09:26:37.307Z,95.62
2023-12-28T09:27:37.327Z,95.52
2023-12-28T09:28:37.262Z,95.21
2023-12-28T09:29:37.291Z,95.52
2023-12-28T09:30:37.292Z,95.21
2023-12-28T09:31:37.303Z,95.42
2023-12-28T09:32:37.295Z,95.10
2023-12-28T09:33:37.267Z,94.96
2023-12-28T09:34:37.270Z,95.06
2023-12-28T09:35:37.203Z,94.65
2023-12-28T09:36:37.269Z,94.30
2023-12-28T09:37:37.185Z,93.64
2023-12-28T09:38:37.230Z,92.47
2023-12-28T09:39:37.192Z,92.51
2023-12-28T09:40:37.169Z,92.76
2023-12-28T09:41:37.187Z,93.23
2023-12-28T09:42:37.249Z,92.82
2023-12-28T09:43:37.144Z,93.33
2023-12-28T09:44:37.127Z,93.13
2023-12-28T09:45:37.154Z,93.64
2023-12-28T09:46:37.150Z,92.82
2023-12-28T09:47:37.169Z,93.02
2023-12-28T09:48:37.231Z,92.93
2023-12-28T09:49:37.251Z,93.02
2023-12-28T09:50:37.206Z,92.93
2023-12-28T09:51:37.091Z,93.02
2023-12-28T09:52:37.083Z,93.44
2023-12-28T09:53:37.058Z,92.21
2023-12-28T09:54:37.105Z,92.51
2023-12-28T09:55:37.104Z,92.47
2023-12-28T09:56:37.039Z,92.06
2023-12-28T09:57:37.078Z,92.68
2023-12-28T09:58:37.184Z,92.72
2023-12-28T09:59:37.066Z,92.47
2023-12-28T10:00:37.108Z,91.20
2023-12-28T10:01:37.069Z,91.61
2023-12-28T10:02:37.208Z,91.75
2023-12-28T10:03:38.021Z,91.71
2023-12-28T10:04:37.092Z,91.14
2023-12-28T10:05:37.001Z,91.24
2023-12-28T10:06:36.980Z,91.61
2023-12-28T10:07:36.967Z,92.57
2023-12-28T10:08:36.967Z,92.57
2023-12-28T10:09:37.049Z,92.57
2023-12-28T10:10:36.932Z,92.36
2023-12-28T10:11:36.947Z,91.82
2023-12-28T10:12:36.955Z,91.65
2023-12-28T10:13:36.956Z,92.36
2023-12-28T10:14:36.929Z,92.57
2023-12-28T10:15:36.922Z,92.32
2023-12-28T10:16:36.887Z,91.55
2023-12-28T10:17:36.899Z,90.89
2023-12-28T10:18:37.016Z,91.14
2023-12-28T10:19:37.019Z,91.55
2023-12-28T10:20:36.875Z,91.40
2023-12-28T10:21:36.850Z,91.82
2023-12-28T10:22:36.837Z,91.71
2023-12-28T10:23:36.857Z,91.30
2023-12-28T10:24:37.890Z,91.30
2023-12-28T10:25:36.814Z,91.09
2023-12-28T10:26:36.802Z,90.99
2023-12-28T10:27:36.835Z,90.69
2023-12-28T10:28:36.808Z,90.48
2023-12-28T10:29:36.824Z,90.99
2023-12-28T10:30:36.884Z,89.87
2023-12-28T10:31:36.898Z,90.28
2023-12-28T10:32:36.887Z,90.03
2023-12-28T10:33:36.869Z,90.34
2023-12-28T10:34:36.796Z,90.48
2023-12-28T10:35:36.765Z,90.44
2023-12-28T10:36:36.780Z,90.54
2023-12-28T10:37:36.779Z,90.34
2023-12-28T10:38:36.709Z,89.83
2023-12-28T10:39:36.721Z,89.72
2023-12-28T10:40:36.688Z,89.51
2023-12-28T10:41:36.763Z,90.23
2023-12-28T10:42:36.733Z,89.62
2023-12-28T10:43:36.694Z,89.51
2023-12-28T10:44:36.665Z,89.62
2023-12-28T10:45:36.692Z,89.17
2023-12-28T10:46:36.672Z,89.58
2023-12-28T10:47:36.678Z,89.06
2023-12-28T10:48:36.709Z,89.58
2023-12-28T10:49:36.714Z,88.86
2023-12-28T10:50:36.660Z,88.70
2023-12-28T10:51:36.670Z,88.56
2023-12-28T10:52:36.608Z,88.86
2023-12-28T10:53:36.598Z,89.27
2023-12-28T10:54:36.619Z,88.45
2023-12-28T10:55:36.573Z,88.86
2023-12-28T10:56:37.637Z,88.04
2023-12-28T10:57:36.594Z,88.45
2023-12-28T10:58:36.558Z,88.76
2023-12-28T10:59:36.550Z,89.27
2023-12-28T11:00:36.676Z,88.86
2023-12-28T11:01:36.629Z,88.31
2023-12-28T11:02:36.575Z,88.56
2023-12-28T11:03:36.605Z,88.45
2023-12-28T11:04:36.566Z,89.17
2023-12-28T11:05:36.621Z,88.45
2023-12-28T11:06:37.604Z,87.94
2023-12-28T11:07:36.492Z,88.14
2023-12-28T11:08:36.480Z,87.94
2023-12-28T11:09:36.486Z,88.35
2023-12-28T11:10:36.498Z,88.24
2023-12-28T11:11:36.463Z,88.14
2023-12-28T11:12:36.502Z,88.45
2023-12-28T11:13:36.445Z,88.24
2023-12-28T11:14:36.429Z,88.56
2023-12-28T11:15:36.517Z,88.56
2023-12-28T11:16:36.424Z,88.51
2023-12-28T11:17:36.460Z,87.63
2023-12-28T11:18:36.505Z,88.04
2023-12-28T11:19:36.525Z,88.56
2023-12-28T11:20:36.416Z,88.56
2023-12-28T11:21:36.410Z,87.73
2023-12-28T11:22:36.375Z,88.31
2023-12-28T11:23:36.365Z,88.41
2023-12-28T11:24:36.401Z,87.90
2023-12-28T11:25:36.348Z,87.90
2023-12-28T11:26:36.341Z,87.70
2023-12-28T11:27:36.379Z,87.70
2023-12-28T11:28:36.320Z,88.20
2023-12-28T11:29:36.334Z,87.79
2023-12-28T11:30:36.347Z,87.08
2023-12-28T11:31:36.516Z,86.77
2023-12-28T11:32:36.352Z,87.08
2023-12-28T11:33:36.381Z,87.79
2023-12-28T11:34:36.362Z,86.88
2023-12-28T11:35:36.264Z,86.88
2023-12-28T11:36:36.305Z,88.00
2023-12-28T11:37:37.287Z,86.88
2023-12-28T11:38:36.285Z,86.77
2023-12-28T11:39:36.367Z,86.98
2023-12-28T11:40:36.224Z,86.46
2023-12-28T11:41:36.220Z,87.79
2023-12-28T11:42:36.226Z,86.16
2023-12-28T11:43:36.266Z,86.98
2023-12-28T11:44:36.225Z,87.59
2023-12-28T11:45:36.219Z,87.18
2023-12-28T11:46:36.194Z,86.77
2023-12-28T11:47:36.198Z,86.88
2023-12-28T11:48:36.304Z,87.29
2023-12-28T11:49:36.259Z,87.59
2023-12-28T11:50:36.167Z,87.79
2023-12-28T11:51:36.161Z,87.59
2023-12-28T11:52:36.128Z,86.88
2023-12-28T11:53:36.150Z,87.70
2023-12-28T11:54:36.193Z,87.59
2023-12-28T11:55:36.112Z,86.77
2023-12-28T11:56:36.097Z,87.29
2023-12-28T11:57:36.152Z,87.59
2023-12-28T11:58:36.102Z,87.22
2023-12-28T11:59:36.110Z,86.91
2023-12-28T12:00:36.151Z,87.63
2023-12-28T12:01:36.105Z,87.73
2023-12-28T12:02:36.073Z,87.84
2023-12-28T12:03:36.087Z,87.90
2023-12-28T12:04:36.213Z,87.22
2023-12-28T12:05:36.039Z,86.91
2023-12-28T12:06:36.048Z,86.71
2023-12-28T12:07:36.032Z,86.51
2023-12-28T12:08:36.018Z,85.79
2023-12-28T12:09:36.168Z,86.61
2023-12-28T12:10:35.984Z,86.46
2023-12-28T12:11:35.971Z,86.51
2023-12-28T12:12:36.041Z,86.36
2023-12-28T12:13:35.963Z,86.46
2023-12-28T12:14:35.955Z,86.46
2023-12-28T12:15:35.988Z,86.81
2023-12-28T12:16:35.971Z,86.30
2023-12-28T12:17:35.996Z,86.16
2023-12-28T12:18:35.995Z,85.85
2023-12-28T12:19:36.034Z,86.46
2023-12-28T12:20:35.908Z,87.32
2023-12-28T12:21:35.952Z,86.51
2023-12-28T12:22:35.885Z,86.81
2023-12-28T12:23:35.881Z,86.91
2023-12-28T12:24:35.900Z,87.94
2023-12-28T12:25:35.891Z,86.91
2023-12-28T12:26:35.881Z,86.71
2023-12-28T12:27:35.903Z,87.94
2023-12-28T12:28:35.857Z,87.26
2023-12-28T12:29:35.836Z,86.44
2023-12-28T12:30:35.911Z,86.65
2023-12-28T12:31:35.955Z,87.16
2023-12-28T12:32:35.901Z,86.96
2023-12-28T12:33:36.025Z,87.26
2023-12-28T12:34:35.922Z,86.85
2023-12-28T12:35:35.822Z,86.96
2023-12-28T12:36:35.792Z,87.88
2023-12-28T12:37:35.785Z,87.06
2023-12-28T12:38:35.764Z,87.61
2023-12-28T12:39:35.799Z,88.08
2023-12-28T12:40:35.778Z,87.57
2023-12-28T12:41:35.746Z,87.57
2023-12-28T12:42:35.755Z,88.08
2023-12-28T12:43:35.728Z,88.29
2023-12-28T12:44:35.809Z,87.77
2023-12-28T12:45:35.752Z,88.08
2023-12-28T12:46:35.703Z,88.33
2023-12-28T12:47:35.888Z,88.39
2023-12-28T12:48:35.864Z,87.77
2023-12-28T12:49:35.803Z,86.79
2023-12-28T12:50:35.665Z,87.88
2023-12-28T12:51:35.666Z,87.77
2023-12-28T12:52:35.652Z,87.98